Observations for STANSTED AIRPORT, United Kingdom (EGSS)

EGSS 231120Z AUTO 20009KT 9999 OVC007 13/12 Q1017   
EGSS 231050Z AUTO 20008KT 9999 OVC007 13/12 Q1017   
EGSS 231020Z AUTO 20008KT 9999 OVC005 13/12 Q1017   
EGSS 230950Z 20008KT 4000 HZ OVC007 12/11 Q1017 
EGSS 230920Z AUTO 20007KT 9999 BKN010 OVC023 12/10 Q1018
EGSS 230850Z AUTO 20007KT 9999 FEW010 BKN019 12/10 Q1018
EGSS 230820Z AUTO 20006KT 9999 FEW010 SCT028 11/09 Q1018
EGSS 230750Z AUTO 20007KT 9999 NCD 10/09 Q1018  
EGSS 230720Z AUTO 22007KT 9999 SCT039 10/09 Q1018   
EGSS 230650Z AUTO 22007KT 9999 SCT048 10/09 Q1018   
EGSS 230620Z AUTO 23008KT 9999 BKN048 09/09 Q1018   
EGSS 230550Z AUTO 23007KT 9999 NCD 09/08 Q1017  
EGSS 230520Z AUTO 23007KT 9999 SCT044 09/08 Q1018   
EGSS 230450Z AUTO 21008KT 9999 BKN041 09/08 Q1018   
EGSS 230420Z AUTO 22007KT 9999 OVC045 09/08 Q1018   
EGSS 230350Z 22008KT 9999 BKN046 09/07 Q1018
EGSS 230320Z 22008KT 9999 FEW049 08/07 Q1018
EGSS 230250Z 22006KT CAVOK 08/07 Q1018  
EGSS 230220Z AUTO 20005KT 9999 NCD 08/06 Q1017  
EGSS 230150Z AUTO 21006KT 9999 NCD 08/06 Q1017  
EGSS 230120Z 25006KT CAVOK 09/07 Q1017  
EGSS 230050Z AUTO 25008KT 9999 NCD 09/07 Q1017  
EGSS 230020Z AUTO 24009KT 9999 NCD 09/07 Q1017  
EGSS 222350Z AUTO 24009KT 9999 NCD 09/07 Q1017  
EGSS 222320Z AUTO 24007KT 9999 NCD 08/06 Q1018  
EGSS 222250Z AUTO 24008KT 9999 FEW029 SCT038 08/06 Q1017
EGSS 222220Z AUTO 24007KT 9999 BKN028 OVC039 09/06 Q1017
EGSS 222150Z AUTO 25008KT 9999 BKN041 08/06 Q1017   
EGSS 222120Z AUTO 24009KT 9999 NCD 07/05 Q1017  
EGSS 222050Z AUTO 25008KT 9999 NCD 08/06 Q1017  
EGSS 222020Z AUTO 25006KT 9999 NCD 08/06 Q1017  
EGSS 221950Z AUTO 23005KT 9999 NCD 07/05 Q1016  
EGSS 221920Z AUTO 26005KT 9999 NCD 09/06 Q1016  
EGSS 221850Z AUTO 27006KT 9999 FEW045 09/06 Q1016   
EGSS 221820Z AUTO 27008KT 9999 SCT046 10/06 Q1015   
EGSS 221750Z AUTO 27008KT 240V300 9999 BKN036 BKN047 11/06 Q1015
EGSS 221720Z AUTO 27008KT 9999 FEW036 BKN048 10/06 Q1015
EGSS 221650Z AUTO 27008KT 240V300 9999 NCD 11/06 Q1014  
EGSS 221620Z AUTO 28009KT 9999 NCD 11/05 Q1014  
EGSS 221550Z AUTO 29012KT 9999 FEW044 12/05 Q1013   
EGSS 221520Z AUTO 28012KT 250V310 9999 FEW045 13/04 Q1013   
EGSS 221450Z AUTO 28013KT 250V310 9999 FEW045 13/04 Q1013   
EGSS 221420Z AUTO 27013KT 230V300 9999 BKN043 12/03 Q1013   
EGSS 221350Z AUTO 27014KT 9999 BKN041 12/03 Q1013   
EGSS 221320Z AUTO 27012KT 9999 OVC040 12/03 Q1013   
EGSS 221250Z AUTO 27014KT 9999 OVC039 11/03 Q1012   
EGSS 221220Z AUTO 28015G26KT 9999 OVC037 12/04 Q1012
EGSS 221150Z AUTO 28013KT 9999 BKN036 12/04 Q1012   
EGSS 221120Z AUTO 27016G27KT 240V310 9999 BKN033 12/04 Q1012
EGSS 221050Z AUTO 27014KT 9999 BKN030 11/05 Q1011